EDDF/FRA METAR and TAF weather

Enter ICAO airport designator
Station Type Date Time Source
EDDF METAR 2020/07/09 22:50 UTC NOAA

EDDF 092250Z 07006KT CAVOK 21/14 Q1011 NOSIG


Station Type Date Time Source
EDDF Decoded METAR 2020/07/09 22:50 UTC NOAA

Frankfurt / M-Flughafen, Germany (EDDF) 50-03N 008-36E 113M
Jul 09, 2020 - 06:50 PM EDT / 2020.07.09 2250 UTC
Wind: from the ENE (070 degrees) at 7 MPH (6 KT):0
Visibility: greater than 7 mile(s):0
Temperature: 69 F (21 C)
Dew Point: 57 F (14 C)
Relative Humidity: 64%
Pressure (altimeter): 29.85 in. Hg (1011 hPa)
ob: EDDF 092250Z 07006KT CAVOK 21/14 Q1011 NOSIG
cycle: 23

Station Type Date Time Source
EDDF TAF 2020/07/09 18:27 UTC NOAA

TAF TAF EDDF 091700Z 0918/1024 25013KT CAVOK
BECMG 0919/0921 22005KT
BECMG 0921/0923 VRB03KT
BECMG 1004/1006 24009KT
BECMG 1008/1010 26015G30KT
TEMPO 1008/1014 BKN035 PROB30
TEMPO 1015/1021 4500 -SHRA BKN030TCU
BECMG 1017/1019 32008KT

Example: see airport list